sensor_id;sensor_type;location;lat;lon;timestamp;P1;P2;P0
73148;PMS7003;61346;48.930;2.266;2022-07-21T00:00:44;2.75;2.75;2.75
73148;PMS7003;61346;48.930;2.266;2022-07-21T00:03:09;3.00;3.00;2.75
73148;PMS7003;61346;48.930;2.266;2022-07-21T00:05:35;3.00;3.00;2.75
73148;PMS7003;61346;48.930;2.266;2022-07-21T00:08:00;4.50;4.50;4.00
73148;PMS7003;61346;48.930;2.266;2022-07-21T00:10:26;3.00;3.00;2.75
73148;PMS7003;61346;48.930;2.266;2022-07-21T00:12:52;4.00;4.00;3.00
73148;PMS7003;61346;48.930;2.266;2022-07-21T00:15:20;3.50;3.25;3.00
73148;PMS7003;61346;48.930;2.266;2022-07-21T00:17:47;3.00;3.00;2.50
73148;PMS7003;61346;48.930;2.266;2022-07-21T00:20:13;4.00;4.00;3.50
73148;PMS7003;61346;48.930;2.266;2022-07-21T00:22:40;3.00;3.00;2.50
73148;PMS7003;61346;48.930;2.266;2022-07-21T00:25:06;4.00;4.00;3.25
73148;PMS7003;61346;48.930;2.266;2022-07-21T00:27:32;4.00;4.00;4.00
73148;PMS7003;61346;48.930;2.266;2022-07-21T00:29:58;3.25;2.00;2.00
73148;PMS7003;61346;48.930;2.266;2022-07-21T00:32:25;4.00;4.00;3.00
73148;PMS7003;61346;48.930;2.266;2022-07-21T00:34:52;4.00;4.00;3.00
73148;PMS7003;61346;48.930;2.266;2022-07-21T00:37:19;3.75;3.00;3.00
73148;PMS7003;61346;48.930;2.266;2022-07-21T00:39:44;2.00;2.00;2.00
73148;PMS7003;61346;48.930;2.266;2022-07-21T00:42:19;4.00;4.00;3.00
73148;PMS7003;61346;48.930;2.266;2022-07-21T00:44:49;3.00;3.00;3.00
73148;PMS7003;61346;48.930;2.266;2022-07-21T00:47:15;3.75;3.00;3.00
73148;PMS7003;61346;48.930;2.266;2022-07-21T00:49:43;3.50;2.75;2.00
73148;PMS7003;61346;48.930;2.266;2022-07-21T00:52:10;3.00;3.00;2.00
73148;PMS7003;61346;48.930;2.266;2022-07-21T00:54:39;3.75;2.50;2.00
73148;PMS7003;61346;48.930;2.266;2022-07-21T00:57:07;4.00;4.00;3.00
73148;PMS7003;61346;48.930;2.266;2022-07-21T00:59:33;4.75;3.25;3.00
73148;PMS7003;61346;48.930;2.266;2022-07-21T01:01:59;3.00;3.00;2.75
73148;PMS7003;61346;48.930;2.266;2022-07-21T01:04:25;4.00;3.00;2.00
73148;PMS7003;61346;48.930;2.266;2022-07-21T01:06:51;3.00;3.00;3.00
73148;PMS7003;61346;48.930;2.266;2022-07-21T01:09:18;3.00;3.00;3.00
73148;PMS7003;61346;48.930;2.266;2022-07-21T01:11:47;3.00;3.00;2.00
73148;PMS7003;61346;48.930;2.266;2022-07-21T01:14:13;3.00;3.00;2.75
73148;PMS7003;61346;48.930;2.266;2022-07-21T01:16:38;3.00;3.00;3.00
73148;PMS7003;61346;48.930;2.266;2022-07-21T01:19:05;3.00;3.00;2.00
73148;PMS7003;61346;48.930;2.266;2022-07-21T01:21:35;2.75;2.75;2.75
73148;PMS7003;61346;48.930;2.266;2022-07-21T01:24:03;3.50;3.50;3.00
73148;PMS7003;61346;48.930;2.266;2022-07-21T01:26:31;4.00;4.00;3.00
73148;PMS7003;61346;48.930;2.266;2022-07-21T01:29:06;4.75;3.00;2.25
73148;PMS7003;61346;48.930;2.266;2022-07-21T01:31:31;4.50;3.00;3.00
73148;PMS7003;61346;48.930;2.266;2022-07-21T01:33:56;3.00;3.00;3.00
73148;PMS7003;61346;48.930;2.266;2022-07-21T01:36:22;3.75;3.75;3.00
73148;PMS7003;61346;48.930;2.266;2022-07-21T01:38:50;4.00;4.00;3.00
73148;PMS7003;61346;48.930;2.266;2022-07-21T01:41:35;3.75;3.00;2.50
73148;PMS7003;61346;48.930;2.266;2022-07-21T01:44:11;3.75;3.75;3.00
73148;PMS7003;61346;48.930;2.266;2022-07-21T01:46:44;3.75;3.50;3.25
73148;PMS7003;61346;48.930;2.266;2022-07-21T01:49:13;2.25;2.25;2.00
73148;PMS7003;61346;48.930;2.266;2022-07-21T01:51:40;5.00;3.25;3.00
73148;PMS7003;61346;48.930;2.266;2022-07-21T01:54:06;3.00;3.00;2.50
73148;PMS7003;61346;48.930;2.266;2022-07-21T01:56:33;4.25;3.75;3.00
73148;PMS7003;61346;48.930;2.266;2022-07-21T01:59:00;4.00;4.00;3.00
73148;PMS7003;61346;48.930;2.266;2022-07-21T02:01:27;6.25;5.00;3.75
73148;PMS7003;61346;48.930;2.266;2022-07-21T02:03:54;4.00;4.00;3.00
73148;PMS7003;61346;48.930;2.266;2022-07-21T02:06:21;7.25;5.25;4.00
73148;PMS7003;61346;48.930;2.266;2022-07-21T02:08:47;4.00;4.00;4.00
73148;PMS7003;61346;48.930;2.266;2022-07-21T02:11:14;3.75;3.75;3.00
73148;PMS7003;61346;48.930;2.266;2022-07-21T02:13:42;4.75;4.75;3.75
73148;PMS7003;61346;48.930;2.266;2022-07-21T02:16:07;3.75;2.50;1.75
73148;PMS7003;61346;48.930;2.266;2022-07-21T02:18:33;3.75;2.75;2.50
73148;PMS7003;61346;48.930;2.266;2022-07-21T02:20:59;3.75;3.75;3.25
73148;PMS7003;61346;48.930;2.266;2022-07-21T02:23:24;7.00;4.00;3.00
73148;PMS7003;61346;48.930;2.266;2022-07-21T02:25:50;4.25;4.00;3.00
73148;PMS7003;61346;48.930;2.266;2022-07-21T02:28:17;6.75;5.25;3.75
73148;PMS7003;61346;48.930;2.266;2022-07-21T02:30:43;4.50;4.00;3.00
73148;PMS7003;61346;48.930;2.266;2022-07-21T02:33:08;7.25;6.25;4.50
73148;PMS7003;61346;48.930;2.266;2022-07-21T02:35:34;5.25;5.25;3.25
73148;PMS7003;61346;48.930;2.266;2022-07-21T02:37:59;4.00;4.00;3.50
73148;PMS7003;61346;48.930;2.266;2022-07-21T02:40:25;5.00;4.75;4.75
73148;PMS7003;61346;48.930;2.266;2022-07-21T02:42:51;4.00;4.00;4.00
73148;PMS7003;61346;48.930;2.266;2022-07-21T02:45:16;4.50;4.50;3.00
73148;PMS7003;61346;48.930;2.266;2022-07-21T02:47:58;5.75;5.00;4.00
73148;PMS7003;61346;48.930;2.266;2022-07-21T02:50:29;7.00;6.25;5.50
73148;PMS7003;61346;48.930;2.266;2022-07-21T02:53:00;4.00;4.00;3.50
73148;PMS7003;61346;48.930;2.266;2022-07-21T02:55:28;5.75;5.25;5.00
73148;PMS7003;61346;48.930;2.266;2022-07-21T02:58:09;5.75;5.75;4.50
73148;PMS7003;61346;48.930;2.266;2022-07-21T03:00:41;8.25;5.00;4.50
73148;PMS7003;61346;48.930;2.266;2022-07-21T03:03:11;4.00;4.00;3.00
73148;PMS7003;61346;48.930;2.266;2022-07-21T03:05:40;5.25;5.25;4.25
73148;PMS7003;61346;48.930;2.266;2022-07-21T03:08:07;7.25;6.00;3.75
73148;PMS7003;61346;48.930;2.266;2022-07-21T03:10:34;8.00;6.50;5.00
73148;PMS7003;61346;48.930;2.266;2022-07-21T03:13:00;12.00;7.25;5.75
73148;PMS7003;61346;48.930;2.266;2022-07-21T03:15:25;7.75;4.75;4.25
73148;PMS7003;61346;48.930;2.266;2022-07-21T03:17:52;8.75;8.75;6.25
73148;PMS7003;61346;48.930;2.266;2022-07-21T03:20:18;10.50;10.50;8.00
73148;PMS7003;61346;48.930;2.266;2022-07-21T03:22:44;7.50;6.00;5.00
73148;PMS7003;61346;48.930;2.266;2022-07-21T03:25:10;9.25;8.00;5.50
73148;PMS7003;61346;48.930;2.266;2022-07-21T03:27:36;8.00;8.00;7.00
73148;PMS7003;61346;48.930;2.266;2022-07-21T03:30:03;9.25;9.25;6.25
73148;PMS7003;61346;48.930;2.266;2022-07-21T03:32:30;7.75;6.25;6.00
73148;PMS7003;61346;48.930;2.266;2022-07-21T03:34:58;10.00;10.00;6.50
73148;PMS7003;61346;48.930;2.266;2022-07-21T03:37:24;11.00;11.00;7.50
73148;PMS7003;61346;48.930;2.266;2022-07-21T03:39:52;10.75;10.75;7.75
73148;PMS7003;61346;48.930;2.266;2022-07-21T03:42:17;9.75;9.75;8.00
73148;PMS7003;61346;48.930;2.266;2022-07-21T03:44:43;12.75;12.00;9.25
73148;PMS7003;61346;48.930;2.266;2022-07-21T03:47:08;14.00;13.75;9.50
73148;PMS7003;61346;48.930;2.266;2022-07-21T03:49:37;10.00;10.00;8.00
73148;PMS7003;61346;48.930;2.266;2022-07-21T03:52:03;10.50;8.75;7.25
73148;PMS7003;61346;48.930;2.266;2022-07-21T03:54:30;13.25;13.25;9.50
73148;PMS7003;61346;48.930;2.266;2022-07-21T03:56:55;11.25;10.00;8.00
73148;PMS7003;61346;48.930;2.266;2022-07-21T03:59:21;12.00;10.50;7.50
73148;PMS7003;61346;48.930;2.266;2022-07-21T04:01:46;12.50;11.75;8.75
73148;PMS7003;61346;48.930;2.266;2022-07-21T04:04:12;11.75;10.50;8.25
73148;PMS7003;61346;48.930;2.266;2022-07-21T04:06:40;11.75;11.00;8.25
73148;PMS7003;61346;48.930;2.266;2022-07-21T04:09:05;8.25;8.25;6.75
73148;PMS7003;61346;48.930;2.266;2022-07-21T04:11:31;13.75;12.00;8.75
73148;PMS7003;61346;48.930;2.266;2022-07-21T04:13:57;11.75;11.75;8.00
73148;PMS7003;61346;48.930;2.266;2022-07-21T04:16:25;12.75;11.75;8.75
73148;PMS7003;61346;48.930;2.266;2022-07-21T04:18:52;17.25;15.00;11.25
73148;PMS7003;61346;48.930;2.266;2022-07-21T04:21:17;17.00;15.00;10.00
73148;PMS7003;61346;48.930;2.266;2022-07-21T04:23:42;16.75;16.00;12.50
73148;PMS7003;61346;48.930;2.266;2022-07-21T04:26:08;18.75;18.00;12.50
73148;PMS7003;61346;48.930;2.266;2022-07-21T04:28:34;14.00;13.50;9.50
73148;PMS7003;61346;48.930;2.266;2022-07-21T04:30:59;9.50;9.50;8.50
73148;PMS7003;61346;48.930;2.266;2022-07-21T04:33:25;16.50;15.25;11.00
73148;PMS7003;61346;48.930;2.266;2022-07-21T04:35:51;15.00;14.25;10.25
73148;PMS7003;61346;48.930;2.266;2022-07-21T04:38:16;19.75;14.50;11.25
73148;PMS7003;61346;48.930;2.266;2022-07-21T04:40:43;18.25;15.00;11.00
73148;PMS7003;61346;48.930;2.266;2022-07-21T04:43:09;16.25;15.50;10.75
73148;PMS7003;61346;48.930;2.266;2022-07-21T04:45:34;19.50;15.75;12.50
73148;PMS7003;61346;48.930;2.266;2022-07-21T04:47:59;18.25;17.75;12.50
73148;PMS7003;61346;48.930;2.266;2022-07-21T04:50:26;24.50;20.00;15.25
73148;PMS7003;61346;48.930;2.266;2022-07-21T04:52:52;15.75;15.25;10.25
73148;PMS7003;61346;48.930;2.266;2022-07-21T04:55:19;17.50;15.75;11.50
73148;PMS7003;61346;48.930;2.266;2022-07-21T04:57:46;21.00;19.75;12.50
73148;PMS7003;61346;48.930;2.266;2022-07-21T05:00:17;17.75;17.75;14.00
73148;PMS7003;61346;48.930;2.266;2022-07-21T05:02:44;24.00;20.75;15.00
73148;PMS7003;61346;48.930;2.266;2022-07-21T05:05:11;16.25;16.25;11.25
73148;PMS7003;61346;48.930;2.266;2022-07-21T05:07:37;17.75;15.75;12.00
73148;PMS7003;61346;48.930;2.266;2022-07-21T05:10:03;17.25;15.25;12.00
73148;PMS7003;61346;48.930;2.266;2022-07-21T05:12:32;17.75;16.75;11.75
73148;PMS7003;61346;48.930;2.266;2022-07-21T05:14:58;18.75;16.00;11.75
73148;PMS7003;61346;48.930;2.266;2022-07-21T05:17:24;20.00;18.50;12.25
73148;PMS7003;61346;48.930;2.266;2022-07-21T05:19:49;21.50;18.00;13.25
73148;PMS7003;61346;48.930;2.266;2022-07-21T05:22:15;22.25;17.25;14.00
73148;PMS7003;61346;48.930;2.266;2022-07-21T05:24:41;22.25;18.50;13.00
73148;PMS7003;61346;48.930;2.266;2022-07-21T05:27:07;16.75;16.25;13.00
73148;PMS7003;61346;48.930;2.266;2022-07-21T05:29:33;19.50;17.75;12.00
73148;PMS7003;61346;48.930;2.266;2022-07-21T05:31:58;23.25;20.75;15.25
73148;PMS7003;61346;48.930;2.266;2022-07-21T05:34:23;19.00;17.00;13.00
73148;PMS7003;61346;48.930;2.266;2022-07-21T05:36:51;20.25;17.50;13.50
73148;PMS7003;61346;48.930;2.266;2022-07-21T05:39:18;20.75;18.75;11.75
73148;PMS7003;61346;48.930;2.266;2022-07-21T05:41:44;20.25;16.50;12.50
73148;PMS7003;61346;48.930;2.266;2022-07-21T05:44:09;17.50;15.00;9.75
73148;PMS7003;61346;48.930;2.266;2022-07-21T05:46:35;20.75;18.50;12.50
73148;PMS7003;61346;48.930;2.266;2022-07-21T05:49:00;17.00;16.25;11.00
73148;PMS7003;61346;48.930;2.266;2022-07-21T05:51:26;17.00;15.75;11.75
73148;PMS7003;61346;48.930;2.266;2022-07-21T05:53:51;18.75;17.50;12.25
73148;PMS7003;61346;48.930;2.266;2022-07-21T05:56:17;20.00;17.50;12.50
73148;PMS7003;61346;48.930;2.266;2022-07-21T05:58:42;20.50;18.25;11.25
73148;PMS7003;61346;48.930;2.266;2022-07-21T06:01:09;17.75;17.50;13.00
73148;PMS7003;61346;48.930;2.266;2022-07-21T06:03:39;19.50;16.50;12.00
73148;PMS7003;61346;48.930;2.266;2022-07-21T06:06:10;18.25;13.25;11.50
73148;PMS7003;61346;48.930;2.266;2022-07-21T06:08:38;20.25;18.75;13.25
73148;PMS7003;61346;48.930;2.266;2022-07-21T06:11:05;19.00;16.50;11.50
73148;PMS7003;61346;48.930;2.266;2022-07-21T06:13:31;18.75;16.50;12.00
73148;PMS7003;61346;48.930;2.266;2022-07-21T06:15:57;16.00;15.75;10.75
73148;PMS7003;61346;48.930;2.266;2022-07-21T06:18:22;12.75;12.50;9.50
73148;PMS7003;61346;48.930;2.266;2022-07-21T06:20:48;16.75;16.75;12.50
73148;PMS7003;61346;48.930;2.266;2022-07-21T06:23:13;17.25;17.25;11.75
73148;PMS7003;61346;48.930;2.266;2022-07-21T06:25:39;20.00;18.75;12.50
73148;PMS7003;61346;48.930;2.266;2022-07-21T06:28:04;16.00;15.00;9.25
73148;PMS7003;61346;48.930;2.266;2022-07-21T06:30:30;23.25;19.25;14.50
73148;PMS7003;61346;48.930;2.266;2022-07-21T06:32:55;23.25;17.25;11.50
73148;PMS7003;61346;48.930;2.266;2022-07-21T06:35:21;19.50;15.50;10.75
73148;PMS7003;61346;48.930;2.266;2022-07-21T06:37:46;19.25;17.00;11.50
73148;PMS7003;61346;48.930;2.266;2022-07-21T06:40:15;22.25;19.00;14.50
73148;PMS7003;61346;48.930;2.266;2022-07-21T06:42:40;19.50;17.00;11.75
73148;PMS7003;61346;48.930;2.266;2022-07-21T06:45:06;20.50;18.75;10.50
73148;PMS7003;61346;48.930;2.266;2022-07-21T06:47:31;16.50;16.00;10.50
73148;PMS7003;61346;48.930;2.266;2022-07-21T06:49:59;18.75;18.75;11.75
73148;PMS7003;61346;48.930;2.266;2022-07-21T06:52:31;20.00;17.25;11.75
73148;PMS7003;61346;48.930;2.266;2022-07-21T06:54:58;16.50;16.50;11.25
73148;PMS7003;61346;48.930;2.266;2022-07-21T06:57:23;18.75;16.25;10.50
73148;PMS7003;61346;48.930;2.266;2022-07-21T06:59:49;18.75;18.25;13.00
73148;PMS7003;61346;48.930;2.266;2022-07-21T07:02:14;22.25;19.75;14.75
73148;PMS7003;61346;48.930;2.266;2022-07-21T07:04:40;21.75;18.25;12.00
73148;PMS7003;61346;48.930;2.266;2022-07-21T07:07:06;21.00;18.75;12.25
73148;PMS7003;61346;48.930;2.266;2022-07-21T07:09:31;19.25;18.00;11.50
73148;PMS7003;61346;48.930;2.266;2022-07-21T07:11:57;20.00;17.50;12.25
73148;PMS7003;61346;48.930;2.266;2022-07-21T07:14:31;19.50;18.75;13.50
73148;PMS7003;61346;48.930;2.266;2022-07-21T07:16:57;20.00;18.25;11.75
73148;PMS7003;61346;48.930;2.266;2022-07-21T07:19:23;16.50;16.50;12.00
73148;PMS7003;61346;48.930;2.266;2022-07-21T07:21:49;19.75;18.25;12.75
73148;PMS7003;61346;48.930;2.266;2022-07-21T07:24:14;21.00;19.00;12.50
73148;PMS7003;61346;48.930;2.266;2022-07-21T07:26:40;13.25;12.00;8.25
73148;PMS7003;61346;48.930;2.266;2022-07-21T07:29:05;18.75;16.00;10.00
73148;PMS7003;61346;48.930;2.266;2022-07-21T07:31:31;20.50;18.75;14.00
73148;PMS7003;61346;48.930;2.266;2022-07-21T07:33:57;20.75;20.50;13.75
73148;PMS7003;61346;48.930;2.266;2022-07-21T07:36:26;20.75;19.25;13.50
73148;PMS7003;61346;48.930;2.266;2022-07-21T07:38:52;24.50;23.00;16.00
73148;PMS7003;61346;48.930;2.266;2022-07-21T07:41:22;30.25;23.00;13.75
73148;PMS7003;61346;48.930;2.266;2022-07-21T07:43:49;22.75;20.50;13.75
73148;PMS7003;61346;48.930;2.266;2022-07-21T07:46:16;21.25;20.50;15.00
73148;PMS7003;61346;48.930;2.266;2022-07-21T07:48:45;25.00;23.00;15.25
73148;PMS7003;61346;48.930;2.266;2022-07-21T07:51:12;20.75;18.75;14.50
73148;PMS7003;61346;48.930;2.266;2022-07-21T07:53:39;21.50;20.25;14.25
73148;PMS7003;61346;48.930;2.266;2022-07-21T07:56:04;22.75;21.50;14.25
73148;PMS7003;61346;48.930;2.266;2022-07-21T07:58:30;19.75;19.00;14.00
73148;PMS7003;61346;48.930;2.266;2022-07-21T08:00:56;23.00;22.00;13.75
73148;PMS7003;61346;48.930;2.266;2022-07-21T08:03:22;19.50;18.25;13.50
73148;PMS7003;61346;48.930;2.266;2022-07-21T08:05:49;25.50;22.75;16.25
73148;PMS7003;61346;48.930;2.266;2022-07-21T08:08:14;21.25;20.50;15.00
73148;PMS7003;61346;48.930;2.266;2022-07-21T08:10:41;24.75;22.75;16.50
73148;PMS7003;61346;48.930;2.266;2022-07-21T08:13:11;27.50;21.75;15.50
73148;PMS7003;61346;48.930;2.266;2022-07-21T08:15:38;21.50;20.75;14.00
73148;PMS7003;61346;48.930;2.266;2022-07-21T08:18:04;23.75;20.25;13.75
73148;PMS7003;61346;48.930;2.266;2022-07-21T08:20:30;22.75;22.75;14.50
73148;PMS7003;61346;48.930;2.266;2022-07-21T08:22:58;26.00;22.75;14.75
73148;PMS7003;61346;48.930;2.266;2022-07-21T08:25:24;25.25;22.50;18.00
73148;PMS7003;61346;48.930;2.266;2022-07-21T08:27:49;24.75;20.00;15.25
73148;PMS7003;61346;48.930;2.266;2022-07-21T08:30:14;24.50;22.25;15.75
73148;PMS7003;61346;48.930;2.266;2022-07-21T08:32:40;27.25;24.50;17.00
73148;PMS7003;61346;48.930;2.266;2022-07-21T08:35:06;23.50;23.25;15.75
73148;PMS7003;61346;48.930;2.266;2022-07-21T08:37:37;21.50;20.75;16.25
73148;PMS7003;61346;48.930;2.266;2022-07-21T08:40:03;26.00;24.00;15.25
73148;PMS7003;61346;48.930;2.266;2022-07-21T08:42:30;27.75;25.25;19.00
73148;PMS7003;61346;48.930;2.266;2022-07-21T08:44:56;25.00;22.50;14.25
73148;PMS7003;61346;48.930;2.266;2022-07-21T08:47:22;26.25;22.25;13.75
73148;PMS7003;61346;48.930;2.266;2022-07-21T08:49:49;22.00;21.00;14.50
73148;PMS7003;61346;48.930;2.266;2022-07-21T08:52:16;26.50;23.25;13.25
73148;PMS7003;61346;48.930;2.266;2022-07-21T08:54:43;25.75;23.00;14.75
73148;PMS7003;61346;48.930;2.266;2022-07-21T08:57:09;23.75;21.75;15.75
73148;PMS7003;61346;48.930;2.266;2022-07-21T08:59:34;20.50;18.50;15.00
73148;PMS7003;61346;48.930;2.266;2022-07-21T09:01:59;24.50;23.50;15.00
73148;PMS7003;61346;48.930;2.266;2022-07-21T09:04:26;24.00;23.50;16.75
73148;PMS7003;61346;48.930;2.266;2022-07-21T09:07:05;28.75;28.25;17.00
73148;PMS7003;61346;48.930;2.266;2022-07-21T09:09:32;26.00;24.00;15.50
73148;PMS7003;61346;48.930;2.266;2022-07-21T09:12:00;23.75;20.00;12.50
73148;PMS7003;61346;48.930;2.266;2022-07-21T09:14:28;24.75;22.50;12.50
73148;PMS7003;61346;48.930;2.266;2022-07-21T09:16:59;18.00;18.00;14.00
73148;PMS7003;61346;48.930;2.266;2022-07-21T09:19:29;20.25;20.25;13.75
73148;PMS7003;61346;48.930;2.266;2022-07-21T09:22:01;23.50;21.75;14.75
73148;PMS7003;61346;48.930;2.266;2022-07-21T09:24:35;23.75;23.00;15.50
73148;PMS7003;61346;48.930;2.266;2022-07-21T09:27:17;19.50;17.25;12.25
73148;PMS7003;61346;48.930;2.266;2022-07-21T09:29:47;23.00;19.75;14.25
73148;PMS7003;61346;48.930;2.266;2022-07-21T09:32:26;16.00;13.50;11.75
73148;PMS7003;61346;48.930;2.266;2022-07-21T09:35:01;24.25;20.50;14.25
73148;PMS7003;61346;48.930;2.266;2022-07-21T09:37:32;21.25;19.00;14.25
73148;PMS7003;61346;48.930;2.266;2022-07-21T09:39:59;21.50;20.25;12.50
73148;PMS7003;61346;48.930;2.266;2022-07-21T09:42:32;15.50;15.50;11.25
73148;PMS7003;61346;48.930;2.266;2022-07-21T09:45:09;17.75;17.50;13.25
73148;PMS7003;61346;48.930;2.266;2022-07-21T09:47:37;19.75;16.00;11.25
73148;PMS7003;61346;48.930;2.266;2022-07-21T09:50:04;20.50;17.50;12.50
73148;PMS7003;61346;48.930;2.266;2022-07-21T09:52:35;17.00;17.00;12.50
73148;PMS7003;61346;48.930;2.266;2022-07-21T09:55:03;24.75;20.00;12.75
73148;PMS7003;61346;48.930;2.266;2022-07-21T09:57:38;19.50;19.50;14.25
73148;PMS7003;61346;48.930;2.266;2022-07-21T10:00:06;15.00;15.00;10.75
73148;PMS7003;61346;48.930;2.266;2022-07-21T10:02:34;21.50;19.00;13.50
73148;PMS7003;61346;48.930;2.266;2022-07-21T10:05:04;24.25;22.50;14.25
73148;PMS7003;61346;48.930;2.266;2022-07-21T10:07:38;19.25;17.00;12.25
73148;PMS7003;61346;48.930;2.266;2022-07-21T10:10:05;19.75;18.50;12.25
73148;PMS7003;61346;48.930;2.266;2022-07-21T10:12:32;20.50;19.00;14.00
73148;PMS7003;61346;48.930;2.266;2022-07-21T10:14:57;22.50;18.75;13.00
73148;PMS7003;61346;48.930;2.266;2022-07-21T10:17:23;12.25;9.75;7.75
73148;PMS7003;61346;48.930;2.266;2022-07-21T10:20:04;16.25;13.00;10.75
73148;PMS7003;61346;48.930;2.266;2022-07-21T10:25:21;17.25;17.25;12.50
73148;PMS7003;61346;48.930;2.266;2022-07-21T10:30:46;14.50;13.50;10.25
73148;PMS7003;61346;48.930;2.266;2022-07-21T10:33:15;22.25;17.25;11.25
73148;PMS7003;61346;48.930;2.266;2022-07-21T10:35:43;15.75;15.75;11.50
73148;PMS7003;61346;48.930;2.266;2022-07-21T10:41:06;21.50;18.25;12.50
73148;PMS7003;61346;48.930;2.266;2022-07-21T10:45:57;15.00;15.00;11.00
73148;PMS7003;61346;48.930;2.266;2022-07-21T10:51:11;15.50;14.25;10.75
73148;PMS7003;61346;48.930;2.266;2022-07-21T10:53:38;15.00;15.00;12.00
73148;PMS7003;61346;48.930;2.266;2022-07-21T10:56:05;18.00;17.00;13.00
73148;PMS7003;61346;48.930;2.266;2022-07-21T11:01:00;17.50;17.25;11.75
73148;PMS7003;61346;48.930;2.266;2022-07-21T11:03:29;17.50;14.50;12.50
73148;PMS7003;61346;48.930;2.266;2022-07-21T11:08:38;20.00;17.50;12.25
73148;PMS7003;61346;48.930;2.266;2022-07-21T11:11:16;20.50;18.25;12.75
73148;PMS7003;61346;48.930;2.266;2022-07-21T11:24:35;15.00;14.75;10.75
73148;PMS7003;61346;48.930;2.266;2022-07-21T11:27:03;17.25;15.00;10.25
73148;PMS7003;61346;48.930;2.266;2022-07-21T11:29:39;15.25;14.75;11.50
73148;PMS7003;61346;48.930;2.266;2022-07-21T11:32:07;15.75;13.50;9.75
73148;PMS7003;61346;48.930;2.266;2022-07-21T11:34:44;16.25;14.00;10.00
73148;PMS7003;61346;48.930;2.266;2022-07-21T11:37:12;15.75;15.00;11.25
73148;PMS7003;61346;48.930;2.266;2022-07-21T11:39:39;20.00;16.25;11.75
73148;PMS7003;61346;48.930;2.266;2022-07-21T11:42:06;17.50;16.50;10.75
73148;PMS7003;61346;48.930;2.266;2022-07-21T11:44:37;16.75;15.50;11.50
73148;PMS7003;61346;48.930;2.266;2022-07-21T11:47:03;15.75;13.50;10.25
73148;PMS7003;61346;48.930;2.266;2022-07-21T11:49:30;17.50;16.00;12.00
73148;PMS7003;61346;48.930;2.266;2022-07-21T11:54:46;17.25;16.25;10.75
73148;PMS7003;61346;48.930;2.266;2022-07-21T11:57:14;14.00;12.50;11.00
73148;PMS7003;61346;48.930;2.266;2022-07-21T11:59:41;12.75;12.50;7.75
73148;PMS7003;61346;48.930;2.266;2022-07-21T12:02:08;11.00;11.00;9.00
73148;PMS7003;61346;48.930;2.266;2022-07-21T12:04:44;17.25;15.50;9.50
73148;PMS7003;61346;48.930;2.266;2022-07-21T12:10:07;17.50;13.50;11.00
73148;PMS7003;61346;48.930;2.266;2022-07-21T12:12:45;8.75;8.75;5.75
73148;PMS7003;61346;48.930;2.266;2022-07-21T12:17:40;14.25;13.75;10.00
73148;PMS7003;61346;48.930;2.266;2022-07-21T12:20:08;14.25;13.00;10.00
73148;PMS7003;61346;48.930;2.266;2022-07-21T12:22:41;16.00;16.00;11.25
73148;PMS7003;61346;48.930;2.266;2022-07-21T12:25:12;13.50;13.25;10.25
73148;PMS7003;61346;48.930;2.266;2022-07-21T12:27:40;15.50;15.50;11.25
73148;PMS7003;61346;48.930;2.266;2022-07-21T12:30:08;15.75;15.75;10.25
73148;PMS7003;61346;48.930;2.266;2022-07-21T12:32:49;14.75;14.75;11.25
73148;PMS7003;61346;48.930;2.266;2022-07-21T12:35:19;15.25;15.25;11.00
73148;PMS7003;61346;48.930;2.266;2022-07-21T12:40:18;15.50;14.00;10.75
73148;PMS7003;61346;48.930;2.266;2022-07-21T12:42:45;13.50;13.00;11.00
73148;PMS7003;61346;48.930;2.266;2022-07-21T12:45:15;14.75;14.25;9.75
73148;PMS7003;61346;48.930;2.266;2022-07-21T12:47:43;14.75;14.25;10.50
73148;PMS7003;61346;48.930;2.266;2022-07-21T12:50:13;16.00;15.00;10.50
73148;PMS7003;61346;48.930;2.266;2022-07-21T12:52:39;17.00;17.00;11.00
73148;PMS7003;61346;48.930;2.266;2022-07-21T12:55:06;15.75;15.00;10.25
73148;PMS7003;61346;48.930;2.266;2022-07-21T12:57:32;16.50;15.50;11.50
73148;PMS7003;61346;48.930;2.266;2022-07-21T12:59:59;15.75;12.00;8.75
73148;PMS7003;61346;48.930;2.266;2022-07-21T13:02:25;11.75;9.25;6.00
73148;PMS7003;61346;48.930;2.266;2022-07-21T13:04:52;16.00;15.00;11.00
73148;PMS7003;61346;48.930;2.266;2022-07-21T13:07:18;17.00;14.50;10.25
73148;PMS7003;61346;48.930;2.266;2022-07-21T13:09:43;16.50;15.25;11.75
73148;PMS7003;61346;48.930;2.266;2022-07-21T13:12:12;13.25;13.25;11.00
73148;PMS7003;61346;48.930;2.266;2022-07-21T13:14:38;17.50;16.25;11.75
73148;PMS7003;61346;48.930;2.266;2022-07-21T13:17:04;15.75;15.00;10.75
73148;PMS7003;61346;48.930;2.266;2022-07-21T13:19:30;16.25;15.25;12.00
73148;PMS7003;61346;48.930;2.266;2022-07-21T13:21:55;14.50;13.25;11.00
73148;PMS7003;61346;48.930;2.266;2022-07-21T13:24:21;14.75;13.25;10.00
73148;PMS7003;61346;48.930;2.266;2022-07-21T13:26:47;13.00;13.00;10.25
73148;PMS7003;61346;48.930;2.266;2022-07-21T13:29:15;13.00;13.00;10.75
73148;PMS7003;61346;48.930;2.266;2022-07-21T13:31:40;15.25;15.25;12.00
73148;PMS7003;61346;48.930;2.266;2022-07-21T13:34:06;14.25;14.25;9.75
73148;PMS7003;61346;48.930;2.266;2022-07-21T13:36:36;14.75;14.00;11.00
73148;PMS7003;61346;48.930;2.266;2022-07-21T13:39:03;13.75;13.75;9.75
73148;PMS7003;61346;48.930;2.266;2022-07-21T13:41:30;12.25;12.25;9.50
73148;PMS7003;61346;48.930;2.266;2022-07-21T13:43:56;12.50;12.50;10.00
73148;PMS7003;61346;48.930;2.266;2022-07-21T13:46:22;15.50;14.50;11.75
73148;PMS7003;61346;48.930;2.266;2022-07-21T13:48:47;16.00;13.75;9.75
73148;PMS7003;61346;48.930;2.266;2022-07-21T13:51:13;16.25;14.50;10.00
73148;PMS7003;61346;48.930;2.266;2022-07-21T13:53:40;14.50;14.50;10.50
73148;PMS7003;61346;48.930;2.266;2022-07-21T13:56:07;14.25;12.50;9.75
73148;PMS7003;61346;48.930;2.266;2022-07-21T13:58:32;14.00;13.25;9.75
73148;PMS7003;61346;48.930;2.266;2022-07-21T14:00:58;18.25;15.75;10.50
73148;PMS7003;61346;48.930;2.266;2022-07-21T14:03:24;15.75;14.50;11.25
73148;PMS7003;61346;48.930;2.266;2022-07-21T14:05:51;19.50;16.50;11.25
73148;PMS7003;61346;48.930;2.266;2022-07-21T14:08:17;15.25;13.75;10.75
73148;PMS7003;61346;48.930;2.266;2022-07-21T14:10:42;15.50;15.50;10.50
73148;PMS7003;61346;48.930;2.266;2022-07-21T14:13:08;14.50;13.25;10.00
73148;PMS7003;61346;48.930;2.266;2022-07-21T14:15:33;17.50;17.50;12.00
73148;PMS7003;61346;48.930;2.266;2022-07-21T14:18:00;13.75;12.50;9.25
73148;PMS7003;61346;48.930;2.266;2022-07-21T14:20:25;14.25;14.25;10.50
73148;PMS7003;61346;48.930;2.266;2022-07-21T14:22:51;13.25;13.25;10.75
73148;PMS7003;61346;48.930;2.266;2022-07-21T14:25:16;18.00;15.25;10.75
73148;PMS7003;61346;48.930;2.266;2022-07-21T14:27:45;14.00;14.00;11.75
73148;PMS7003;61346;48.930;2.266;2022-07-21T14:30:15;15.25;15.25;12.00
73148;PMS7003;61346;48.930;2.266;2022-07-21T14:32:43;15.25;14.75;11.75
73148;PMS7003;61346;48.930;2.266;2022-07-21T14:35:09;13.50;13.25;11.25
73148;PMS7003;61346;48.930;2.266;2022-07-21T14:37:35;18.75;16.25;13.25